createdAt,value
2022-08-26T00:14:31.648Z,8.70
2022-08-26T00:44:34.701Z,8.27
2022-08-26T01:14:38.170Z,9.80
2022-08-26T01:44:42.417Z,9.43
2022-08-26T02:14:47.123Z,8.40
2022-08-26T02:44:50.421Z,11.07
2022-08-26T03:14:54.469Z,11.67
2022-08-26T03:44:57.580Z,15.20
2022-08-26T04:15:01.548Z,20.20
2022-08-26T04:45:10.192Z,21.50
2022-08-26T05:15:14.011Z,18.35
2022-08-26T05:45:17.038Z,18.40
2022-08-26T06:15:20.607Z,15.75
2022-08-26T06:45:24.161Z,15.23
2022-08-26T07:15:31.502Z,10.47
2022-08-26T07:45:35.217Z,8.63
2022-08-26T08:15:39.182Z,9.03
2022-08-26T08:45:42.137Z,8.20
2022-08-26T10:18:10.116Z,5.80
2022-08-26T10:48:14.358Z,3.87
2022-08-26T11:18:17.781Z,4.30
2022-08-26T11:48:22.028Z,4.03
2022-08-26T12:18:29.348Z,4.40
2022-08-26T12:48:33.312Z,4.90
2022-08-26T13:18:38.050Z,4.20
2022-08-26T13:48:41.339Z,4.00
2022-08-26T14:48:54.252Z,3.60
2022-08-26T15:19:05.317Z,3.40
2022-08-26T15:49:08.735Z,3.47
2022-08-26T16:19:21.643Z,4.30
2022-08-26T16:49:25.161Z,3.50
2022-08-26T17:19:29.288Z,3.40
2022-08-26T17:49:39.392Z,4.33
2022-08-26T18:19:44.532Z,4.27
2022-08-26T18:49:48.071Z,5.20
2022-08-26T19:19:52.640Z,4.53
2022-08-26T19:49:56.466Z,6.27
2022-08-26T20:20:02.443Z,5.80
2022-08-26T20:50:06.095Z,5.20
2022-08-26T21:20:11.927Z,6.20
2022-08-26T21:50:15.181Z,7.10
2022-08-26T22:20:18.977Z,7.20
2022-08-26T22:50:21.879Z,7.60
2022-08-26T23:20:26.013Z,7.57
2022-08-26T23:50:28.735Z,7.70
